Free Trial

Granite Point Mortgage Trust (GPMT) Institutional Ownership

Granite Point Mortgage Trust logo
$1.43 +0.02 (+1.42%)
As of 03:28 PM Eastern
This is a fair market value price provided by Massive. Learn more.

Institutional Ownership Changes (13F Filings) for Granite Point Mortgage Trust (NYSE:GPMT)

Current
Institutional Ownership
Percentage
51.63%
Number of
Institutional Buyers
(last 12 months)
47
Total
Institutional Inflows
(last 12 months)
$81.44M
Number of
Institutional Sellers
(last 12 months)
23
Total
Institutional Outflows
(last 12 months)
$8.47M
Get GPMT Insider Trade Alerts

Want to know when executives and insiders are buying or selling Granite Point Mortgage Trust stock? Sign up for InsiderTrades.com's daily newsletter to get the latest insider transactions delivered to your inbox daily.

SMS is currently available in Australia, Belgium, Canada, France, Germany, Ireland, Italy, New Zealand, the Netherlands, Singapore, South Africa, Spain, Switzerland, the United Kingdom, and the United States. By entering your phone number and clicking the sign-up button, you agree to receive periodic text messages from MarketBeat at the phone number you submitted, including texts that may be sent using an automatic telephone dialing system. Message and data rates may apply. Message frequency will vary. Messages will consist of stock alerts, news stories, and partner advertisements/offers. Consent is not a condition of the purchase of any goods or services. Text HELP for help/customer support. Unsubscribe at any time by replying "STOP" to any text message that you receive from MarketBeat or by visiting our mailing preferences page. Read our full terms of service and privacy policy.
Skip Chart & View Institutional Buying and Selling Data

GPMT Institutional Buying and Selling by Quarter

Granite Point Mortgage Trust Major Shareholders & Ownership History

Reporting DateMajor Shareholder NameShares HeldMarket Value% of PortfolioQuarterly Change in SharesOwnership in CompanyDetails
4/30/2026 Quantum Portfolio Management LLC45,917,258$66.58M0.7%N/A95.821%
3/20/2026Purpose Unlimited Inc.867,675$2.08M0.1%N/A1.824%
2/19/2026Invesco Ltd.98,617$237K0.0%-34.9%0.208%
2/18/2026XTX Topco Ltd97,558$234K0.0%+156.8%0.206%
2/18/2026Millennium Management LLC242,712$583K0.0%-42.8%0.512%
2/18/2026Engineers Gate Manager LP39,007$94K0.0%+18.5%0.082%
2/18/2026683 Capital Management LLC183,150$440K0.0%N/A0.386%
2/17/2026AQR Capital Management LLC13,739$33K0.0%-39.4%0.029%
2/17/2026Cetera Investment Advisers23,385$56K0.0%-23.3%0.049%
2/17/2026Graham Capital Management L.P.93,899$225K0.0%-5.6%0.198%
2/16/2026OMERS ADMINISTRATION Corp35,600$85K0.0%N/A0.075%
2/16/2026Barclays PLC95,931$230K0.0%+112.3%0.202%
2/13/2026Marshall Wace LLP849,109$2.04M0.0%-4.9%1.791%
2/13/2026Charles Schwab Investment Management Inc.264,279$634K0.0%-12.8%0.557%
2/13/2026State Street Corp265,242$650K0.0%+2.1%0.559%
2/12/2026Jane Street Group LLC328,005$787K0.0%-6.6%0.692%
2/12/2026Eagle Point Credit Management LLC80,666$194K0.2%N/A0.170%
2/11/2026LPL Financial LLC10,258$25K0.0%N/A0.022%
2/10/2026Goldman Sachs Group Inc.134,627$323K0.0%-23.9%0.284%
2/9/2026Catalyst Funds Management Pty Ltd10,386$25K0.0%-74.1%0.022%
2/6/2026GSA Capital Partners LLP399,886$960K0.1%-17.3%0.843%
1/29/2026Camelot Portfolios LLC324,621$779K0.5%-8.7%0.685%
1/26/2026 Invested Advisors32,767$79K0.1%+50.6%0.069%
1/23/2026Cura Wealth Advisors LLC1,894,666$4.55M1.7%+5.4%3.996%
1/7/2026 Epiq Partners LLC1,093,188$2.62M1.2%-8.5%2.306%
1/1/2026JPMorgan Chase & Co.222,900$669K0.0%-4.6%0.470%
12/1/2025 Investment Research Partners LLC50,185$137K0.1%N/A0.106%
11/18/2025Advisory Services Network LLC8,546$26K0.0%N/A0.018%
11/17/2025Camelot Portfolios LLC355,593$1.07M0.6%-5.4%0.750%
11/17/2025Susquehanna International Group LLP307,963$924K0.0%+15.4%0.650%
11/17/2025Qube Research & Technologies Ltd77,020$231K0.0%-45.7%0.162%
11/17/2025Millennium Management LLC424,630$1.27M0.0%-44.1%0.896%
11/17/2025Bank of America Corp DE66,148$198K0.0%+32.1%0.140%
11/17/2025Ameriprise Financial Inc.196,708$590K0.0%-50.4%0.415%
11/14/2025Raymond James Financial Inc.188,967$567K0.0%-12.7%0.399%
11/14/2025Hotchkis & Wiley Capital Management LLC1,258,947$3.78M0.0%-12.8%2.655%
11/14/2025Two Sigma Investments LP186,781$560K0.0%N/A0.394%
11/13/2025Arrowstreet Capital Limited Partnership175,926$528K0.0%N/A0.371%
11/12/2025 Epiq Partners LLC1,194,905$3.59M1.7%+2.4%2.521%
11/7/2025GSA Capital Partners LLP483,548$1.45M0.1%-1.5%1.020%
11/7/2025Vanguard Group Inc.2,442,107$7.33M0.0%+5.8%5.152%
11/7/2025JPMorgan Chase & Co.222,900$669K0.0%-4.6%0.470%
10/23/2025 Invested Advisors21,757$60K0.1%N/A0.046%
10/22/2025 Abundance Wealth Counselors187,119$561K0.1%+4.0%0.395%
9/26/2025Corient Private Wealth LLC20,871$52K0.0%-27.4%0.044%
8/19/2025 B. Riley Wealth Advisors Inc.11,535$28K0.0%N/A0.024%
8/18/2025Hudson Bay Capital Management LP12,593$31K0.0%N/A0.027%
8/15/2025Tower Research Capital LLC TRC 26,989$67K0.0%+435.4%0.057%
8/15/2025Corient Private Wealth LLC20,871$52K0.0%-27.4%0.044%
8/15/2025Hudson Bay Capital Management LP12,593$31K0.0%N/A0.027%
8/15/2025Gratia Capital LLC665,783$1.64M1.6%-16.8%1.405%
8/15/2025Brevan Howard Capital Management LP92,952$230K0.0%N/A0.196%
8/15/2025Bank of America Corp DE50,059$124K0.0%+72.7%0.106%
8/15/2025Ameriprise Financial Inc.396,242$979K0.0%+36.0%0.836%
8/14/2025Jane Street Group LLC720,441$1.78M0.0%+1,020.8%1.520%
8/14/2025Raymond James Financial Inc.216,418$535K0.0%-1.9%0.457%
8/14/2025Qube Research & Technologies Ltd141,808$350K0.0%+948.9%0.299%
8/13/2025Jump Financial LLC12,664$31K0.0%N/A0.027%
8/13/2025Marshall Wace LLP1,007,221$2.49M0.0%+9,425.4%2.125%
8/13/2025Invesco Ltd.176,162$435K0.0%-30.8%0.372%
8/13/2025Quadrature Capital Ltd33,802$83K0.0%N/A0.071%
8/12/2025XTX Topco Ltd122,720$303K0.0%+146.2%0.259%
8/12/2025JPMorgan Chase & Co.233,744$577K0.0%-22.5%0.493%
8/12/2025Catalyst Funds Management Pty Ltd23,100$57K0.0%N/A0.049%
8/11/2025Truffle Hound Capital LLC400,000$988K0.3%N/A0.844%
8/8/2025Geode Capital Management LLC520,976$1.29M0.0%-55.7%1.099%
8/7/2025Connor Clark & Lunn Investment Management Ltd.45,597$113K0.0%N/A0.094%
8/1/2025May Hill Capital LLC11,141$28K0.0%N/A0.023%
8/1/2025 Y Intercept Hong Kong Ltd91,739$227K0.0%N/A0.190%
7/31/2025 Ground Swell Capital LLC16,052$40K0.1%N/A0.033%
7/22/2025Confluence Wealth Services Inc.11,543$29K0.0%N/A0.024%
7/17/2025Camelot Portfolios LLC375,853$928K0.6%-5.1%0.776%
7/11/2025 Farther Finance Advisors LLC13,062$32K0.0%+1,460.6%0.027%
7/9/2025 Epiq Partners LLC1,166,500$2.88M1.5%-6.0%2.410%
6/27/2025Goldman Sachs Group Inc.232,019$603K0.0%-6.6%0.479%
5/21/2025Acadian Asset Management LLC602,372$1.57M0.0%+9.4%1.244%
5/19/2025Jane Street Group LLC64,277$167K0.0%-73.6%0.133%
5/19/2025Palogic Value Management L.P.79,000$205K0.1%-34.1%0.163%
5/16/2025Goldman Sachs Group Inc.232,019$603K0.0%-6.6%0.479%
5/16/2025AQR Capital Management LLC156,518$407K0.0%+473.4%0.323%
5/15/2025Cura Wealth Advisors LLC1,465,929$3.81M1.5%+16.8%3.028%
5/15/2025Palogic Value Management L.P.79,000$205K0.1%-34.1%0.163%
5/15/2025Vident Advisory LLC47,718$124K0.0%N/A0.099%
5/14/2025Ieq Capital LLC35,081$91K0.0%+123.4%0.072%
5/14/2025MetLife Investment Management LLC21,334$55K0.0%+68.3%0.044%
5/14/2025Hotchkis & Wiley Capital Management LLC1,259,507$3.28M0.0%-2.4%2.602%
5/14/2025Dorsey & Whitney Trust CO LLC60,000$156K0.0%+200.0%0.124%
5/13/2025Cresset Asset Management LLC42,724$111K0.0%+39.2%0.088%
5/12/2025Nuveen LLC155,022$403K0.0%N/A0.320%
5/12/2025Invesco Ltd.254,545$662K0.0%-16.2%0.526%
5/12/2025Wolverine Asset Management LLC375,562$976K0.0%-24.0%0.776%
5/9/2025Charles Schwab Investment Management Inc.402,792$1.05M0.0%-29.9%0.832%
5/8/2025XTX Topco Ltd49,840$130K0.0%N/A0.103%
5/1/2025CWM LLC15,047$39K0.0%+368.2%0.031%
4/30/2025Cerity Partners LLC15,658$41K0.0%N/A0.032%
4/30/2025Nisa Investment Advisors LLC53,327$139K0.0%+229.4%0.110%
4/29/2025Bank of New York Mellon Corp141,655$368K0.0%-8.6%0.293%
4/23/2025Oppenheimer & Co. Inc.170,236$443K0.0%N/A0.348%
4/21/2025Abundance Wealth Counselors132,010$343K0.1%+54.8%0.270%
4/16/2025Wealth Enhancement Advisory Services LLC11,655$30K0.0%N/A0.024%


GPMT Institutional Ownership - Frequently Asked Questions

Who are the largest shareholders of GPMT shares?

During the previous two years, 95 institutional investors and hedge funds held shares of Granite Point Mortgage Trust. The most heavily invested institutionals were Quantum Portfolio Management LLC ($66.58M), Vanguard Group Inc. ($7.33M), Cura Wealth Advisors LLC ($4.55M), Hotchkis & Wiley Capital Management LLC ($3.78M), Epiq Partners LLC ($2.62M), Purpose Unlimited Inc. ($2.08M), and Marshall Wace LLP ($2.04M).Learn more on Granite Point Mortgage Trust's institutional investors.

What percentage of Granite Point Mortgage Trust's stock is owned by institutional investors?

51.63% of Granite Point Mortgage Trust's stock is owned by institutional investors. Learn more on GPMT's institutional investor holdings.

Which institutional investors have been buying Granite Point Mortgage Trust's stock?

Of the 80 institutional investors that purchased Granite Point Mortgage Trust's stock in the last 24 months, the following investors and hedge funds have bought the highest volume of shares: Quantum Portfolio Management LLC ($45.92M), Marshall Wace LLP ($996.65K), Purpose Unlimited Inc. ($867.68K), Jane Street Group LLC ($813.38K), Epiq Partners LLC ($738.73K), Gratia Capital LLC ($700K), and Wolverine Asset Management LLC ($493.85K).

How much institutional buying is happening at Granite Point Mortgage Trust?

Institutional investors have bought a total of 51,509,068 shares in the last 24 months. This purchase volume represents approximately $81.44M in transactions.

Which of Granite Point Mortgage Trust's major shareholders have been selling company stock?

Of the 23 institutional investors that sold Granite Point Mortgage Trust's stock in the last 24 months, the following investors and hedge funds have sold the highest volume of shares: Geode Capital Management LLC ($654.42K), Millennium Management LLC ($516.30K), Hotchkis & Wiley Capital Management LLC ($215.43K), Charles Schwab Investment Management Inc. ($210.20K), Jane Street Group LLC ($201.98K), Ameriprise Financial Inc. ($199.53K), and Invesco Ltd. ($180.51K).

How much institutional selling is happening at Granite Point Mortgage Trust?

Institutional investors have sold a total of 3,223,575 shares in the last 24 months. This volume of shares sold represents approximately $8.47M in transactions.



This page (NYSE:GPMT) was last updated on 5/5/2026 by MarketBeat.com Staff.
From Our Partners